createdAt,value
2023-03-22T00:01:00.090Z,29.80
2023-03-22T00:06:04.469Z,29.40
2023-03-22T00:11:06.596Z,32.33
2023-03-22T00:16:09.548Z,28.83
2023-03-22T00:21:15.577Z,28.23
2023-03-22T00:26:22.258Z,26.80
2023-03-22T00:31:23.948Z,26.37
2023-03-22T00:36:30.589Z,28.70
2023-03-22T00:41:37.123Z,28.20
2023-03-22T00:46:41.857Z,26.77
2023-03-22T00:51:46.060Z,25.50
2023-03-22T00:56:49.854Z,31.10
2023-03-22T01:01:52.108Z,27.03
2023-03-22T01:06:59.406Z,23.33
2023-03-22T01:12:03.617Z,21.67
2023-03-22T01:17:07.358Z,19.80
2023-03-22T01:22:10.397Z,21.17
2023-03-22T01:27:14.695Z,18.83
2023-03-22T01:32:18.735Z,21.43
2023-03-22T01:37:25.464Z,25.00
2023-03-22T01:42:30.470Z,17.53
2023-03-22T01:47:37.841Z,16.70
2023-03-22T01:52:42.593Z,19.73
2023-03-22T01:57:51.706Z,20.40
2023-03-22T02:03:03.786Z,21.27
2023-03-22T02:08:15.182Z,24.70
2023-03-22T02:13:52.637Z,18.03
2023-03-22T02:19:42.263Z,24.77
2023-03-22T02:25:06.763Z,25.10
2023-03-22T02:30:29.556Z,20.80
2023-03-22T02:36:16.847Z,19.53
2023-03-22T02:41:34.519Z,18.23
2023-03-22T02:46:44.200Z,18.00
2023-03-22T02:51:53.805Z,21.70
2023-03-22T02:57:30.746Z,15.83
2023-03-22T03:02:37.545Z,17.30
2023-03-22T03:07:45.747Z,16.73
2023-03-22T03:12:47.905Z,14.40
2023-03-22T03:18:09.246Z,13.40
2023-03-22T03:23:16.994Z,15.60
2023-03-22T03:28:22.898Z,14.53
2023-03-22T03:33:30.534Z,16.13
2023-03-22T03:38:34.807Z,15.83
2023-03-22T03:43:39.536Z,19.80
2023-03-22T03:48:47.348Z,13.93
2023-03-22T03:53:51.537Z,20.73
2023-03-22T03:58:58.299Z,16.30
2023-03-22T04:04:02.728Z,16.37
2023-03-22T04:09:06.478Z,15.47
2023-03-22T04:14:14.054Z,14.20
2023-03-22T04:19:21.044Z,20.87
2023-03-22T04:24:26.424Z,15.73
2023-03-22T04:29:32.165Z,15.13
2023-03-22T04:34:54.888Z,11.80
2023-03-22T04:39:59.359Z,14.17
2023-03-22T04:45:24.042Z,11.77
2023-03-22T04:50:31.505Z,15.13
2023-03-22T04:55:37.606Z,12.90
2023-03-22T05:00:42.452Z,13.07
2023-03-22T05:05:59.322Z,17.27
2023-03-22T05:11:13.129Z,12.97
2023-03-22T05:16:15.729Z,15.00
2023-03-22T05:21:28.654Z,16.87
2023-03-22T05:26:33.065Z,17.10
2023-03-22T05:31:40.354Z,15.47
2023-03-22T05:36:42.403Z,15.90
2023-03-22T05:42:04.744Z,11.83
2023-03-22T05:47:09.965Z,14.50
2023-03-22T05:52:29.242Z,10.37
2023-03-22T05:57:54.834Z,12.73
2023-03-22T06:03:00.603Z,13.07
2023-03-22T06:08:02.352Z,12.07
2023-03-22T06:13:06.734Z,14.20
2023-03-22T06:18:09.645Z,10.43
2023-03-22T06:23:16.295Z,13.10
2023-03-22T06:28:20.269Z,13.50
2023-03-22T06:33:30.461Z,16.77
2023-03-22T06:38:41.388Z,13.50
2023-03-22T06:43:45.678Z,14.73
2023-03-22T06:49:05.289Z,16.73
2023-03-22T06:54:09.676Z,16.73
2023-03-22T06:59:13.787Z,17.33
2023-03-22T07:04:17.856Z,18.77
2023-03-22T07:09:24.820Z,15.93
2023-03-22T07:14:32.731Z,24.40
2023-03-22T07:19:45.908Z,16.95
2023-03-22T07:24:56.709Z,19.93
2023-03-22T07:29:59.921Z,19.50
2023-03-22T07:35:02.976Z,21.27
2023-03-22T07:40:07.472Z,18.37
2023-03-22T07:45:11.987Z,20.37
2023-03-22T07:50:19.954Z,24.77
2023-03-22T07:55:26.423Z,19.08
2023-03-22T08:00:32.911Z,17.00
2023-03-22T08:05:54.767Z,19.97
2023-03-22T08:10:57.570Z,16.70
2023-03-22T08:16:01.624Z,19.98
2023-03-22T08:21:11.853Z,18.92
2023-03-22T08:26:14.926Z,18.02
2023-03-22T08:31:23.848Z,15.77
2023-03-22T08:36:26.468Z,18.50
2023-03-22T08:41:35.769Z,18.05
2023-03-22T08:46:43.961Z,16.17
2023-03-22T08:51:51.698Z,12.80
2023-03-22T08:57:11.802Z,17.57
2023-03-22T09:02:22.101Z,13.10
2023-03-22T09:07:32.536Z,15.77
2023-03-22T09:13:07.047Z,20.75
2023-03-22T09:18:18.389Z,12.27
2023-03-22T09:23:30.959Z,14.57
2023-03-22T09:29:08.326Z,14.73
2023-03-22T09:34:15.610Z,15.20
2023-03-22T09:39:27.237Z,12.68
2023-03-22T09:45:18.229Z,13.57
2023-03-22T09:50:41.096Z,13.27
2023-03-22T09:56:09.228Z,10.20
2023-03-22T10:01:48.172Z,11.68
2023-03-22T10:07:35.569Z,8.93
2023-03-22T10:13:02.573Z,10.48
2023-03-22T10:18:33.516Z,11.75
2023-03-22T10:24:00.157Z,11.63
2023-03-22T10:29:38.727Z,11.38
2023-03-22T10:34:42.095Z,8.98
2023-03-22T10:39:54.293Z,11.02
2023-03-22T10:45:08.517Z,9.27
2023-03-22T10:50:24.034Z,11.45
2023-03-22T10:55:32.427Z,11.63
2023-03-22T11:00:50.094Z,10.25
2023-03-22T11:06:19.297Z,6.97
2023-03-22T11:11:26.857Z,9.68
2023-03-22T11:16:33.465Z,9.10
2023-03-22T11:21:39.296Z,6.95
2023-03-22T11:27:13.121Z,12.25
2023-03-22T11:32:29.695Z,14.33
2023-03-22T11:37:33.087Z,9.63
2023-03-22T11:42:36.325Z,8.45
2023-03-22T11:47:42.161Z,13.32
2023-03-22T11:52:50.444Z,16.30
2023-03-22T11:57:56.159Z,15.25
2023-03-22T12:03:05.922Z,12.80
2023-03-22T12:08:22.609Z,14.18
2023-03-22T12:13:35.783Z,13.70
2023-03-22T12:18:54.050Z,12.60
2023-03-22T12:24:04.741Z,12.30
2023-03-22T12:29:23.200Z,13.80
2023-03-22T12:34:46.200Z,8.77
2023-03-22T12:39:56.639Z,14.00
2023-03-22T12:45:17.611Z,9.48
2023-03-22T12:50:26.789Z,12.07
2023-03-22T12:55:35.425Z,10.90
2023-03-22T13:06:34.299Z,14.48
2023-03-22T13:11:39.943Z,10.40
2023-03-22T13:16:56.611Z,7.90
2023-03-22T13:22:19.010Z,10.88
2023-03-22T13:27:31.582Z,14.18
2023-03-22T13:32:43.807Z,13.25
2023-03-22T13:37:53.314Z,6.67
2023-03-22T13:43:43.592Z,9.60
2023-03-22T13:48:51.245Z,9.05
2023-03-22T13:54:13.111Z,10.07
2023-03-22T13:59:30.096Z,8.53
2023-03-22T14:04:39.725Z,8.93
2023-03-22T14:10:06.387Z,9.37
2023-03-22T14:15:20.590Z,12.23
2023-03-22T14:20:28.124Z,6.45
